sensor_id;sensor_type;location;lat;lon;timestamp;temperature;humidity
27534;DHT22;14973;51.460;7.008;2022-11-06T00:00:43;9.80;16.80
27534;DHT22;14973;51.460;7.008;2022-11-06T00:03:09;9.80;14.40
27534;DHT22;14973;51.460;7.008;2022-11-06T00:05:39;9.80;16.60
27534;DHT22;14973;51.460;7.008;2022-11-06T00:08:41;9.70;19.90
27534;DHT22;14973;51.460;7.008;2022-11-06T00:11:12;9.70;27.80
27534;DHT22;14973;51.460;7.008;2022-11-06T00:13:39;9.60;31.20
27534;DHT22;14973;51.460;7.008;2022-11-06T00:16:06;9.50;32.10
27534;DHT22;14973;51.460;7.008;2022-11-06T00:18:33;9.60;33.90
27534;DHT22;14973;51.460;7.008;2022-11-06T00:21:01;9.60;33.40
27534;DHT22;14973;51.460;7.008;2022-11-06T00:23:30;9.60;35.60
27534;DHT22;14973;51.460;7.008;2022-11-06T00:25:55;9.50;36.70
27534;DHT22;14973;51.460;7.008;2022-11-06T00:28:21;9.50;39.90
27534;DHT22;14973;51.460;7.008;2022-11-06T00:30:47;9.50;42.20
27534;DHT22;14973;51.460;7.008;2022-11-06T00:33:12;9.50;42.10
27534;DHT22;14973;51.460;7.008;2022-11-06T00:35:39;9.50;43.70
27534;DHT22;14973;51.460;7.008;2022-11-06T00:38:05;9.40;47.90
27534;DHT22;14973;51.460;7.008;2022-11-06T00:40:31;9.40;52.30
27534;DHT22;14973;51.460;7.008;2022-11-06T00:42:57;9.40;50.00
27534;DHT22;14973;51.460;7.008;2022-11-06T00:45:24;9.30;52.20
27534;DHT22;14973;51.460;7.008;2022-11-06T00:47:50;9.30;53.50
27534;DHT22;14973;51.460;7.008;2022-11-06T00:50:16;9.30;52.60
27534;DHT22;14973;51.460;7.008;2022-11-06T00:52:42;9.30;53.00
27534;DHT22;14973;51.460;7.008;2022-11-06T00:55:08;9.30;56.50
27534;DHT22;14973;51.460;7.008;2022-11-06T00:57:34;9.30;54.20
27534;DHT22;14973;51.460;7.008;2022-11-06T00:59:59;9.30;54.70
27534;DHT22;14973;51.460;7.008;2022-11-06T01:02:25;9.30;54.40
27534;DHT22;14973;51.460;7.008;2022-11-06T01:04:51;9.30;52.70
27534;DHT22;14973;51.460;7.008;2022-11-06T01:07:16;9.30;51.50
27534;DHT22;14973;51.460;7.008;2022-11-06T01:09:42;9.30;52.60
27534;DHT22;14973;51.460;7.008;2022-11-06T01:12:07;9.30;52.90
27534;DHT22;14973;51.460;7.008;2022-11-06T01:14:33;9.30;52.30
27534;DHT22;14973;51.460;7.008;2022-11-06T01:16:59;9.30;48.90
27534;DHT22;14973;51.460;7.008;2022-11-06T01:19:24;9.30;44.80
27534;DHT22;14973;51.460;7.008;2022-11-06T01:21:51;9.40;43.60
27534;DHT22;14973;51.460;7.008;2022-11-06T01:24:20;9.30;42.70
27534;DHT22;14973;51.460;7.008;2022-11-06T01:26:46;9.40;41.30
27534;DHT22;14973;51.460;7.008;2022-11-06T01:29:14;9.40;37.10
27534;DHT22;14973;51.460;7.008;2022-11-06T01:31:40;9.40;40.00
27534;DHT22;14973;51.460;7.008;2022-11-06T01:34:06;9.30;39.10
27534;DHT22;14973;51.460;7.008;2022-11-06T01:36:32;9.20;40.80
27534;DHT22;14973;51.460;7.008;2022-11-06T01:39:00;9.30;42.40
27534;DHT22;14973;51.460;7.008;2022-11-06T01:41:32;9.30;38.60
27534;DHT22;14973;51.460;7.008;2022-11-06T01:44:00;9.30;41.10
27534;DHT22;14973;51.460;7.008;2022-11-06T01:46:32;9.30;36.20
27534;DHT22;14973;51.460;7.008;2022-11-06T01:49:09;9.30;38.40
27534;DHT22;14973;51.460;7.008;2022-11-06T01:51:41;9.30;37.20
27534;DHT22;14973;51.460;7.008;2022-11-06T01:54:09;9.30;35.50
27534;DHT22;14973;51.460;7.008;2022-11-06T01:56:35;9.40;31.50
27534;DHT22;14973;51.460;7.008;2022-11-06T01:59:02;9.30;30.20
27534;DHT22;14973;51.460;7.008;2022-11-06T02:01:29;9.30;28.80
27534;DHT22;14973;51.460;7.008;2022-11-06T02:04:03;9.30;32.20
27534;DHT22;14973;51.460;7.008;2022-11-06T02:06:30;9.30;32.60
27534;DHT22;14973;51.460;7.008;2022-11-06T02:08:56;9.30;33.90
27534;DHT22;14973;51.460;7.008;2022-11-06T02:11:22;9.30;33.30
27534;DHT22;14973;51.460;7.008;2022-11-06T02:27:32;9.30;33.80
27534;DHT22;14973;51.460;7.008;2022-11-06T02:30:05;9.30;33.80
27534;DHT22;14973;51.460;7.008;2022-11-06T02:32:43;9.30;30.80
27534;DHT22;14973;51.460;7.008;2022-11-06T02:35:29;9.30;30.10
27534;DHT22;14973;51.460;7.008;2022-11-06T02:38:00;9.30;29.80
27534;DHT22;14973;51.460;7.008;2022-11-06T02:40:31;9.30;30.00
27534;DHT22;14973;51.460;7.008;2022-11-06T02:42:59;9.40;26.20
27534;DHT22;14973;51.460;7.008;2022-11-06T02:45:28;9.30;21.40
27534;DHT22;14973;51.460;7.008;2022-11-06T02:47:55;9.30;21.10
27534;DHT22;14973;51.460;7.008;2022-11-06T02:50:26;9.30;25.50
27534;DHT22;14973;51.460;7.008;2022-11-06T02:52:58;9.20;28.80
27534;DHT22;14973;51.460;7.008;2022-11-06T02:55:30;9.20;30.50
27534;DHT22;14973;51.460;7.008;2022-11-06T02:58:04;9.20;29.10
27534;DHT22;14973;51.460;7.008;2022-11-06T03:00:31;9.10;30.30
27534;DHT22;14973;51.460;7.008;2022-11-06T03:03:14;9.10;31.80
27534;DHT22;14973;51.460;7.008;2022-11-06T03:11:08;9.10;34.20
27534;DHT22;14973;51.460;7.008;2022-11-06T03:13:57;9.10;31.50
27534;DHT22;14973;51.460;7.008;2022-11-06T03:16:55;9.20;31.90
27534;DHT22;14973;51.460;7.008;2022-11-06T03:19:45;9.10;31.90
27534;DHT22;14973;51.460;7.008;2022-11-06T03:24:51;9.10;35.80
27534;DHT22;14973;51.460;7.008;2022-11-06T03:28:06;9.10;34.30
27534;DHT22;14973;51.460;7.008;2022-11-06T03:30:37;9.10;35.90
27534;DHT22;14973;51.460;7.008;2022-11-06T03:35:59;9.10;34.50
27534;DHT22;14973;51.460;7.008;2022-11-06T03:38:57;9.10;35.60
27534;DHT22;14973;51.460;7.008;2022-11-06T03:41:36;9.00;40.30
27534;DHT22;14973;51.460;7.008;2022-11-06T03:44:07;9.00;42.70
27534;DHT22;14973;51.460;7.008;2022-11-06T03:46:36;9.00;42.30
27534;DHT22;14973;51.460;7.008;2022-11-06T03:49:07;9.00;44.50
27534;DHT22;14973;51.460;7.008;2022-11-06T03:54:26;9.00;43.20
27534;DHT22;14973;51.460;7.008;2022-11-06T03:57:06;9.00;41.50
27534;DHT22;14973;51.460;7.008;2022-11-06T03:59:43;9.00;43.40
27534;DHT22;14973;51.460;7.008;2022-11-06T04:02:12;9.00;46.20
27534;DHT22;14973;51.460;7.008;2022-11-06T04:04:42;9.00;45.20
27534;DHT22;14973;51.460;7.008;2022-11-06T04:07:15;9.00;46.10
27534;DHT22;14973;51.460;7.008;2022-11-06T04:09:45;9.00;48.90
27534;DHT22;14973;51.460;7.008;2022-11-06T04:12:30;9.00;50.90
27534;DHT22;14973;51.460;7.008;2022-11-06T04:15:17;9.00;50.00
27534;DHT22;14973;51.460;7.008;2022-11-06T04:17:44;9.00;49.50
27534;DHT22;14973;51.460;7.008;2022-11-06T04:20:13;9.00;50.80
27534;DHT22;14973;51.460;7.008;2022-11-06T04:23:25;9.00;52.30
27534;DHT22;14973;51.460;7.008;2022-11-06T04:29:02;9.00;55.50
27534;DHT22;14973;51.460;7.008;2022-11-06T04:31:32;9.00;54.50
27534;DHT22;14973;51.460;7.008;2022-11-06T04:39:13;8.90;58.20
27534;DHT22;14973;51.460;7.008;2022-11-06T04:41:50;9.00;59.00
27534;DHT22;14973;51.460;7.008;2022-11-06T04:47:03;8.90;58.60
27534;DHT22;14973;51.460;7.008;2022-11-06T04:49:31;9.00;58.50
27534;DHT22;14973;51.460;7.008;2022-11-06T04:51:59;9.00;59.20
27534;DHT22;14973;51.460;7.008;2022-11-06T04:54:27;9.00;58.40
27534;DHT22;14973;51.460;7.008;2022-11-06T04:56:57;9.00;59.60
27534;DHT22;14973;51.460;7.008;2022-11-06T04:59:24;9.00;63.60
27534;DHT22;14973;51.460;7.008;2022-11-06T05:01:50;9.00;61.10
27534;DHT22;14973;51.460;7.008;2022-11-06T05:04:15;9.00;56.30
27534;DHT22;14973;51.460;7.008;2022-11-06T05:06:41;9.10;57.20
27534;DHT22;14973;51.460;7.008;2022-11-06T05:09:06;9.10;53.50
27534;DHT22;14973;51.460;7.008;2022-11-06T05:11:32;9.10;52.50
27534;DHT22;14973;51.460;7.008;2022-11-06T05:13:58;9.10;55.00
27534;DHT22;14973;51.460;7.008;2022-11-06T05:16:23;9.10;55.90
27534;DHT22;14973;51.460;7.008;2022-11-06T05:18:49;9.10;55.20
27534;DHT22;14973;51.460;7.008;2022-11-06T05:21:14;9.10;55.20
27534;DHT22;14973;51.460;7.008;2022-11-06T05:23:59;9.10;59.80
27534;DHT22;14973;51.460;7.008;2022-11-06T05:26:24;9.20;56.70
27534;DHT22;14973;51.460;7.008;2022-11-06T05:28:50;9.20;53.20
27534;DHT22;14973;51.460;7.008;2022-11-06T05:31:15;9.20;53.00
27534;DHT22;14973;51.460;7.008;2022-11-06T05:33:41;9.20;58.30
27534;DHT22;14973;51.460;7.008;2022-11-06T05:36:07;9.20;59.60
27534;DHT22;14973;51.460;7.008;2022-11-06T05:38:33;9.20;58.50
27534;DHT22;14973;51.460;7.008;2022-11-06T05:40:58;9.20;57.00
27534;DHT22;14973;51.460;7.008;2022-11-06T05:43:24;9.20;64.90
27534;DHT22;14973;51.460;7.008;2022-11-06T05:45:50;9.20;62.20
27534;DHT22;14973;51.460;7.008;2022-11-06T05:48:16;9.20;68.40
27534;DHT22;14973;51.460;7.008;2022-11-06T05:50:41;9.20;65.50
27534;DHT22;14973;51.460;7.008;2022-11-06T05:53:07;9.20;65.10
27534;DHT22;14973;51.460;7.008;2022-11-06T05:55:32;9.20;66.90
27534;DHT22;14973;51.460;7.008;2022-11-06T05:57:58;9.20;65.20
27534;DHT22;14973;51.460;7.008;2022-11-06T06:00:23;9.30;59.70
27534;DHT22;14973;51.460;7.008;2022-11-06T06:02:49;9.30;57.90
27534;DHT22;14973;51.460;7.008;2022-11-06T06:05:15;9.30;56.00
27534;DHT22;14973;51.460;7.008;2022-11-06T06:07:41;9.30;55.20
27534;DHT22;14973;51.460;7.008;2022-11-06T06:10:07;9.30;58.80
27534;DHT22;14973;51.460;7.008;2022-11-06T06:12:33;9.30;56.10
27534;DHT22;14973;51.460;7.008;2022-11-06T06:14:59;9.30;58.00
27534;DHT22;14973;51.460;7.008;2022-11-06T06:17:24;9.30;58.20
27534;DHT22;14973;51.460;7.008;2022-11-06T06:19:50;9.20;60.00
27534;DHT22;14973;51.460;7.008;2022-11-06T06:22:16;9.30;59.10
27534;DHT22;14973;51.460;7.008;2022-11-06T06:24:42;9.30;59.00
27534;DHT22;14973;51.460;7.008;2022-11-06T06:27:08;9.30;57.70
27534;DHT22;14973;51.460;7.008;2022-11-06T06:29:34;9.30;55.20
27534;DHT22;14973;51.460;7.008;2022-11-06T06:32:00;9.30;57.20
27534;DHT22;14973;51.460;7.008;2022-11-06T06:34:25;9.40;54.60
27534;DHT22;14973;51.460;7.008;2022-11-06T06:36:52;9.30;54.40
27534;DHT22;14973;51.460;7.008;2022-11-06T06:39:18;9.40;55.80
27534;DHT22;14973;51.460;7.008;2022-11-06T06:41:45;9.40;52.90
27534;DHT22;14973;51.460;7.008;2022-11-06T06:44:11;9.40;52.20
27534;DHT22;14973;51.460;7.008;2022-11-06T06:46:36;9.40;49.90
27534;DHT22;14973;51.460;7.008;2022-11-06T06:49:02;9.40;50.20
27534;DHT22;14973;51.460;7.008;2022-11-06T06:51:28;9.40;50.60
27534;DHT22;14973;51.460;7.008;2022-11-06T06:53:53;9.40;48.20
27534;DHT22;14973;51.460;7.008;2022-11-06T06:56:19;9.50;49.10
27534;DHT22;14973;51.460;7.008;2022-11-06T06:58:45;9.40;48.30
27534;DHT22;14973;51.460;7.008;2022-11-06T07:01:10;9.50;47.50
27534;DHT22;14973;51.460;7.008;2022-11-06T07:03:37;9.60;42.60
27534;DHT22;14973;51.460;7.008;2022-11-06T07:06:03;9.60;39.10
27534;DHT22;14973;51.460;7.008;2022-11-06T07:08:29;9.60;36.90
27534;DHT22;14973;51.460;7.008;2022-11-06T07:10:58;9.60;35.60
27534;DHT22;14973;51.460;7.008;2022-11-06T07:13:24;9.60;37.80
27534;DHT22;14973;51.460;7.008;2022-11-06T07:15:49;9.70;33.10
27534;DHT22;14973;51.460;7.008;2022-11-06T07:18:15;9.70;31.00
27534;DHT22;14973;51.460;7.008;2022-11-06T07:20:40;9.70;30.70
27534;DHT22;14973;51.460;7.008;2022-11-06T07:23:07;9.70;25.00
27534;DHT22;14973;51.460;7.008;2022-11-06T07:25:33;9.70;28.00
27534;DHT22;14973;51.460;7.008;2022-11-06T07:28:03;9.80;22.60
27534;DHT22;14973;51.460;7.008;2022-11-06T07:30:29;9.80;19.20
27534;DHT22;14973;51.460;7.008;2022-11-06T07:32:55;9.80;20.40
27534;DHT22;14973;51.460;7.008;2022-11-06T07:35:21;9.80;15.30
27534;DHT22;14973;51.460;7.008;2022-11-06T07:37:46;9.90;15.60
27534;DHT22;14973;51.460;7.008;2022-11-06T07:40:13;9.90;12.50
27534;DHT22;14973;51.460;7.008;2022-11-06T07:42:39;9.90;13.20
27534;DHT22;14973;51.460;7.008;2022-11-06T07:45:05;9.90;10.60
27534;DHT22;14973;51.460;7.008;2022-11-06T07:47:31;9.90;9.10
27534;DHT22;14973;51.460;7.008;2022-11-06T07:49:57;10.00;9.30
27534;DHT22;14973;51.460;7.008;2022-11-06T07:52:22;10.00;6.10
27534;DHT22;14973;51.460;7.008;2022-11-06T07:54:48;10.10;1.00
27534;DHT22;14973;51.460;7.008;2022-11-06T07:57:14;10.10;1.00
27534;DHT22;14973;51.460;7.008;2022-11-06T07:59:39;10.20;1.00
27534;DHT22;14973;51.460;7.008;2022-11-06T08:02:05;10.20;1.00
27534;DHT22;14973;51.460;7.008;2022-11-06T08:04:31;10.20;1.00
27534;DHT22;14973;51.460;7.008;2022-11-06T08:06:57;10.30;1.00
27534;DHT22;14973;51.460;7.008;2022-11-06T08:09:22;10.40;1.00
27534;DHT22;14973;51.460;7.008;2022-11-06T08:11:49;10.40;1.00
27534;DHT22;14973;51.460;7.008;2022-11-06T08:14:15;10.40;1.00
27534;DHT22;14973;51.460;7.008;2022-11-06T08:16:41;10.40;1.00
27534;DHT22;14973;51.460;7.008;2022-11-06T08:19:07;10.50;1.00
27534;DHT22;14973;51.460;7.008;2022-11-06T08:21:33;10.60;1.00
27534;DHT22;14973;51.460;7.008;2022-11-06T08:23:59;10.60;1.00
27534;DHT22;14973;51.460;7.008;2022-11-06T08:26:24;10.60;1.00
27534;DHT22;14973;51.460;7.008;2022-11-06T08:28:50;10.60;1.00
27534;DHT22;14973;51.460;7.008;2022-11-06T08:31:16;10.70;1.00
27534;DHT22;14973;51.460;7.008;2022-11-06T08:33:41;10.70;1.00
27534;DHT22;14973;51.460;7.008;2022-11-06T08:36:08;10.80;1.00
27534;DHT22;14973;51.460;7.008;2022-11-06T08:38:34;10.80;1.00
27534;DHT22;14973;51.460;7.008;2022-11-06T08:41:09;10.80;1.00
27534;DHT22;14973;51.460;7.008;2022-11-06T08:43:35;10.90;1.00
27534;DHT22;14973;51.460;7.008;2022-11-06T08:46:02;10.90;1.00
27534;DHT22;14973;51.460;7.008;2022-11-06T08:48:28;10.90;1.00
27534;DHT22;14973;51.460;7.008;2022-11-06T08:50:53;11.00;1.00
27534;DHT22;14973;51.460;7.008;2022-11-06T08:53:19;11.10;1.00
27534;DHT22;14973;51.460;7.008;2022-11-06T08:55:45;11.20;1.00
27534;DHT22;14973;51.460;7.008;2022-11-06T08:58:10;11.40;1.00
27534;DHT22;14973;51.460;7.008;2022-11-06T09:00:36;11.70;99.90
27534;DHT22;14973;51.460;7.008;2022-11-06T09:03:20;11.90;99.90
27534;DHT22;14973;51.460;7.008;2022-11-06T09:05:46;12.40;99.90
27534;DHT22;14973;51.460;7.008;2022-11-06T09:08:12;12.60;1.00
27534;DHT22;14973;51.460;7.008;2022-11-06T09:10:39;12.70;1.00
27534;DHT22;14973;51.460;7.008;2022-11-06T09:13:05;12.80;99.90
27534;DHT22;14973;51.460;7.008;2022-11-06T09:15:32;12.70;99.90
27534;DHT22;14973;51.460;7.008;2022-11-06T09:17:57;12.80;99.90
27534;DHT22;14973;51.460;7.008;2022-11-06T09:20:24;12.80;17.70
27534;DHT22;14973;51.460;7.008;2022-11-06T09:22:50;12.80;1.00
27534;DHT22;14973;51.460;7.008;2022-11-06T09:25:16;12.60;99.90
27534;DHT22;14973;51.460;7.008;2022-11-06T09:27:49;12.50;99.90
27534;DHT22;14973;51.460;7.008;2022-11-06T09:30:17;12.50;1.00
27534;DHT22;14973;51.460;7.008;2022-11-06T09:32:48;12.50;1.00
27534;DHT22;14973;51.460;7.008;2022-11-06T09:35:14;12.40;1.00
27534;DHT22;14973;51.460;7.008;2022-11-06T09:37:40;12.50;1.00
27534;DHT22;14973;51.460;7.008;2022-11-06T09:40:07;12.50;1.00
27534;DHT22;14973;51.460;7.008;2022-11-06T09:45:15;12.60;99.90
27534;DHT22;14973;51.460;7.008;2022-11-06T09:47:46;12.70;99.90
27534;DHT22;14973;51.460;7.008;2022-11-06T09:50:18;12.90;99.90
27534;DHT22;14973;51.460;7.008;2022-11-06T09:52:58;13.00;1.00
27534;DHT22;14973;51.460;7.008;2022-11-06T09:55:34;13.20;99.90
27534;DHT22;14973;51.460;7.008;2022-11-06T09:58:24;13.30;1.00
27534;DHT22;14973;51.460;7.008;2022-11-06T10:00:51;13.20;1.00
27534;DHT22;14973;51.460;7.008;2022-11-06T10:03:50;13.30;1.00
27534;DHT22;14973;51.460;7.008;2022-11-06T10:06:20;13.50;1.00
27534;DHT22;14973;51.460;7.008;2022-11-06T10:08:46;13.70;99.90
27534;DHT22;14973;51.460;7.008;2022-11-06T10:13:50;13.70;1.00
27534;DHT22;14973;51.460;7.008;2022-11-06T10:22:17;13.10;99.90
27534;DHT22;14973;51.460;7.008;2022-11-06T10:27:31;13.20;99.90
27534;DHT22;14973;51.460;7.008;2022-11-06T10:30:17;13.20;99.90
27534;DHT22;14973;51.460;7.008;2022-11-06T10:35:40;13.10;99.90
27534;DHT22;14973;51.460;7.008;2022-11-06T10:38:17;13.30;99.90
27534;DHT22;14973;51.460;7.008;2022-11-06T10:40:47;13.40;99.90
27534;DHT22;14973;51.460;7.008;2022-11-06T10:43:34;13.40;99.90
27534;DHT22;14973;51.460;7.008;2022-11-06T10:46:35;13.50;99.90
27534;DHT22;14973;51.460;7.008;2022-11-06T10:49:05;13.50;99.90
27534;DHT22;14973;51.460;7.008;2022-11-06T10:57:37;13.70;1.00
27534;DHT22;14973;51.460;7.008;2022-11-06T11:00:10;13.70;1.00
27534;DHT22;14973;51.460;7.008;2022-11-06T11:02:42;13.50;1.00
27534;DHT22;14973;51.460;7.008;2022-11-06T11:05:17;13.60;1.00
27534;DHT22;14973;51.460;7.008;2022-11-06T11:07:45;13.90;99.90
27534;DHT22;14973;51.460;7.008;2022-11-06T11:12:52;13.60;99.90
27534;DHT22;14973;51.460;7.008;2022-11-06T11:15:22;13.60;99.90
27534;DHT22;14973;51.460;7.008;2022-11-06T11:20:42;13.50;99.90
27534;DHT22;14973;51.460;7.008;2022-11-06T11:23:20;13.40;99.90
27534;DHT22;14973;51.460;7.008;2022-11-06T11:25:51;13.30;99.90
27534;DHT22;14973;51.460;7.008;2022-11-06T11:33:24;13.30;99.90
27534;DHT22;14973;51.460;7.008;2022-11-06T11:35:52;13.40;99.90
27534;DHT22;14973;51.460;7.008;2022-11-06T11:38:18;13.30;99.90
27534;DHT22;14973;51.460;7.008;2022-11-06T11:40:46;13.30;99.90
27534;DHT22;14973;51.460;7.008;2022-11-06T11:56:49;13.40;99.90
27534;DHT22;14973;51.460;7.008;2022-11-06T12:00:04;13.40;99.90
27534;DHT22;14973;51.460;7.008;2022-11-06T12:02:20;13.50;33.40
27534;DHT22;14973;51.460;7.008;2022-11-06T12:04:53;13.40;20.20
27534;DHT22;14973;51.460;7.008;2022-11-06T12:09:51;13.40;1.00
27534;DHT22;14973;51.460;7.008;2022-11-06T12:12:20;13.40;1.00
27534;DHT22;14973;51.460;7.008;2022-11-06T12:17:58;13.70;1.00
27534;DHT22;14973;51.460;7.008;2022-11-06T12:26:22;13.80;99.90
27534;DHT22;14973;51.460;7.008;2022-11-06T12:28:55;13.90;99.90
27534;DHT22;14973;51.460;7.008;2022-11-06T12:34:02;13.60;99.90
27534;DHT22;14973;51.460;7.008;2022-11-06T12:36:30;13.40;99.90
27534;DHT22;14973;51.460;7.008;2022-11-06T12:39:03;13.20;99.90
27534;DHT22;14973;51.460;7.008;2022-11-06T12:41:33;13.30;99.90
27534;DHT22;14973;51.460;7.008;2022-11-06T12:44:00;13.30;99.90
27534;DHT22;14973;51.460;7.008;2022-11-06T12:46:38;13.40;99.90
27534;DHT22;14973;51.460;7.008;2022-11-06T12:49:33;13.40;99.90
27534;DHT22;14973;51.460;7.008;2022-11-06T12:55:17;13.40;99.90
27534;DHT22;14973;51.460;7.008;2022-11-06T12:57:56;13.30;99.90
27534;DHT22;14973;51.460;7.008;2022-11-06T13:00:29;13.40;99.90
27534;DHT22;14973;51.460;7.008;2022-11-06T13:06:21;13.60;99.90
27534;DHT22;14973;51.460;7.008;2022-11-06T13:08:53;13.60;99.90
27534;DHT22;14973;51.460;7.008;2022-11-06T13:14:15;13.50;99.90
27534;DHT22;14973;51.460;7.008;2022-11-06T13:22:18;13.20;99.90
27534;DHT22;14973;51.460;7.008;2022-11-06T13:27:38;13.20;99.90
27534;DHT22;14973;51.460;7.008;2022-11-06T13:30:13;13.30;99.90
27534;DHT22;14973;51.460;7.008;2022-11-06T13:32:41;13.10;99.90
27534;DHT22;14973;51.460;7.008;2022-11-06T13:35:16;13.10;99.90
27534;DHT22;14973;51.460;7.008;2022-11-06T13:37:46;13.10;99.90
27534;DHT22;14973;51.460;7.008;2022-11-06T13:40:20;13.20;99.90
27534;DHT22;14973;51.460;7.008;2022-11-06T13:43:17;13.20;99.90
27534;DHT22;14973;51.460;7.008;2022-11-06T13:46:11;13.20;99.90
27534;DHT22;14973;51.460;7.008;2022-11-06T13:54:12;13.20;99.90
27534;DHT22;14973;51.460;7.008;2022-11-06T13:59:45;13.00;99.90
27534;DHT22;14973;51.460;7.008;2022-11-06T14:07:46;12.90;99.90
27534;DHT22;14973;51.460;7.008;2022-11-06T14:10:30;12.80;99.90
27534;DHT22;14973;51.460;7.008;2022-11-06T14:12:58;12.70;99.90
27534;DHT22;14973;51.460;7.008;2022-11-06T14:15:33;12.70;97.80
27534;DHT22;14973;51.460;7.008;2022-11-06T14:18:02;12.80;99.90
27534;DHT22;14973;51.460;7.008;2022-11-06T14:20:37;12.70;99.90
27534;DHT22;14973;51.460;7.008;2022-11-06T14:28:32;12.70;99.90
27534;DHT22;14973;51.460;7.008;2022-11-06T14:30:58;12.60;99.90
27534;DHT22;14973;51.460;7.008;2022-11-06T14:38:38;12.70;99.90
27534;DHT22;14973;51.460;7.008;2022-11-06T14:44:21;12.70;99.90
27534;DHT22;14973;51.460;7.008;2022-11-06T14:46:49;12.60;99.90
27534;DHT22;14973;51.460;7.008;2022-11-06T14:49:43;12.70;99.90
27534;DHT22;14973;51.460;7.008;2022-11-06T14:52:14;12.70;99.90
27534;DHT22;14973;51.460;7.008;2022-11-06T14:54:52;12.60;99.90
27534;DHT22;14973;51.460;7.008;2022-11-06T14:59:59;12.50;99.90
27534;DHT22;14973;51.460;7.008;2022-11-06T15:02:28;12.50;95.40
27534;DHT22;14973;51.460;7.008;2022-11-06T15:05:04;12.50;99.30
27534;DHT22;14973;51.460;7.008;2022-11-06T15:09:59;12.40;42.10
27534;DHT22;14973;51.460;7.008;2022-11-06T15:15:51;12.40;44.50
27534;DHT22;14973;51.460;7.008;2022-11-06T15:18:19;12.40;42.50
27534;DHT22;14973;51.460;7.008;2022-11-06T15:20:54;12.30;34.80
27534;DHT22;14973;51.460;7.008;2022-11-06T15:26:13;12.20;43.10
27534;DHT22;14973;51.460;7.008;2022-11-06T15:28:45;12.30;43.50
27534;DHT22;14973;51.460;7.008;2022-11-06T15:31:15;12.30;45.50
27534;DHT22;14973;51.460;7.008;2022-11-06T15:36:17;12.30;48.00
27534;DHT22;14973;51.460;7.008;2022-11-06T15:38:43;12.20;61.30
27534;DHT22;14973;51.460;7.008;2022-11-06T15:41:35;12.30;99.90
27534;DHT22;14973;51.460;7.008;2022-11-06T15:44:01;12.20;99.90
27534;DHT22;14973;51.460;7.008;2022-11-06T15:46:28;12.10;99.90
27534;DHT22;14973;51.460;7.008;2022-11-06T15:49:07;12.00;99.90
27534;DHT22;14973;51.460;7.008;2022-11-06T15:51:37;12.00;99.90
27534;DHT22;14973;51.460;7.008;2022-11-06T15:54:04;11.90;1.00
27534;DHT22;14973;51.460;7.008;2022-11-06T15:56:32;11.70;87.80
27534;DHT22;14973;51.460;7.008;2022-11-06T15:59:12;11.60;1.00
27534;DHT22;14973;51.460;7.008;2022-11-06T16:01:39;11.50;1.00
27534;DHT22;14973;51.460;7.008;2022-11-06T16:04:10;11.30;1.00
27534;DHT22;14973;51.460;7.008;2022-11-06T16:06:37;11.20;24.90
27534;DHT22;14973;51.460;7.008;2022-11-06T16:09:03;11.20;1.00
27534;DHT22;14973;51.460;7.008;2022-11-06T16:11:30;11.10;1.00
27534;DHT22;14973;51.460;7.008;2022-11-06T16:13:56;11.00;99.90
27534;DHT22;14973;51.460;7.008;2022-11-06T16:16:41;10.90;1.00
27534;DHT22;14973;51.460;7.008;2022-11-06T16:22:10;10.70;1.00
27534;DHT22;14973;51.460;7.008;2022-11-06T16:24:58;10.60;1.00
27534;DHT22;14973;51.460;7.008;2022-11-06T16:27:25;10.50;1.00
27534;DHT22;14973;51.460;7.008;2022-11-06T16:29:54;10.30;6.20
27534;DHT22;14973;51.460;7.008;2022-11-06T16:32:23;10.30;26.40
27534;DHT22;14973;51.460;7.008;2022-11-06T16:34:49;10.10;5.40
27534;DHT22;14973;51.460;7.008;2022-11-06T16:39:52;10.00;26.90
27534;DHT22;14973;51.460;7.008;2022-11-06T16:42:32;9.90;32.00
27534;DHT22;14973;51.460;7.008;2022-11-06T16:45:19;10.00;49.40
27534;DHT22;14973;51.460;7.008;2022-11-06T16:50:45;9.90;25.30
27534;DHT22;14973;51.460;7.008;2022-11-06T16:53:11;9.90;22.70
27534;DHT22;14973;51.460;7.008;2022-11-06T16:55:42;9.90;11.60
27534;DHT22;14973;51.460;7.008;2022-11-06T16:58:13;9.90;13.50
27534;DHT22;14973;51.460;7.008;2022-11-06T17:00:40;9.90;5.20
27534;DHT22;14973;51.460;7.008;2022-11-06T17:03:17;9.90;1.00
27534;DHT22;14973;51.460;7.008;2022-11-06T17:05:52;9.90;11.90
27534;DHT22;14973;51.460;7.008;2022-11-06T17:08:35;9.90;1.00
27534;DHT22;14973;51.460;7.008;2022-11-06T17:11:20;9.80;1.00
27534;DHT22;14973;51.460;7.008;2022-11-06T17:13:48;9.90;1.00
27534;DHT22;14973;51.460;7.008;2022-11-06T17:16:23;9.90;1.00
27534;DHT22;14973;51.460;7.008;2022-11-06T17:18:49;9.90;1.00
27534;DHT22;14973;51.460;7.008;2022-11-06T17:21:23;9.90;1.00
27534;DHT22;14973;51.460;7.008;2022-11-06T17:23:50;9.90;1.00
27534;DHT22;14973;51.460;7.008;2022-11-06T17:26:28;10.00;1.00
27534;DHT22;14973;51.460;7.008;2022-11-06T17:28:55;10.00;1.00
27534;DHT22;14973;51.460;7.008;2022-11-06T17:31:22;10.00;1.00
27534;DHT22;14973;51.460;7.008;2022-11-06T17:33:51;10.10;99.90
27534;DHT22;14973;51.460;7.008;2022-11-06T17:36:19;10.10;99.90
27534;DHT22;14973;51.460;7.008;2022-11-06T17:38:45;10.10;99.90
27534;DHT22;14973;51.460;7.008;2022-11-06T17:41:13;10.10;99.90
27534;DHT22;14973;51.460;7.008;2022-11-06T17:44:01;10.20;1.00
27534;DHT22;14973;51.460;7.008;2022-11-06T17:46:38;10.20;99.90
27534;DHT22;14973;51.460;7.008;2022-11-06T17:49:04;10.20;99.90
27534;DHT22;14973;51.460;7.008;2022-11-06T17:51:31;10.20;99.90
27534;DHT22;14973;51.460;7.008;2022-11-06T17:54:15;10.30;1.00
27534;DHT22;14973;51.460;7.008;2022-11-06T17:56:41;10.20;99.90
27534;DHT22;14973;51.460;7.008;2022-11-06T17:59:09;10.20;1.00
27534;DHT22;14973;51.460;7.008;2022-11-06T18:01:34;10.20;1.00
27534;DHT22;14973;51.460;7.008;2022-11-06T18:04:00;10.20;99.90
27534;DHT22;14973;51.460;7.008;2022-11-06T18:06:26;10.20;46.00
27534;DHT22;14973;51.460;7.008;2022-11-06T18:08:56;10.20;99.90
27534;DHT22;14973;51.460;7.008;2022-11-06T18:11:22;10.30;99.90
27534;DHT22;14973;51.460;7.008;2022-11-06T18:13:48;10.30;1.00
27534;DHT22;14973;51.460;7.008;2022-11-06T18:16:34;10.30;1.00
27534;DHT22;14973;51.460;7.008;2022-11-06T18:19:00;10.30;1.00
27534;DHT22;14973;51.460;7.008;2022-11-06T18:21:29;10.20;39.50
27534;DHT22;14973;51.460;7.008;2022-11-06T18:23:55;10.20;1.00
27534;DHT22;14973;51.460;7.008;2022-11-06T18:26:20;10.20;1.00
27534;DHT22;14973;51.460;7.008;2022-11-06T18:28:47;10.20;99.90
27534;DHT22;14973;51.460;7.008;2022-11-06T18:31:13;10.20;99.90
27534;DHT22;14973;51.460;7.008;2022-11-06T18:33:38;10.30;99.90
27534;DHT22;14973;51.460;7.008;2022-11-06T18:36:06;10.30;99.90
27534;DHT22;14973;51.460;7.008;2022-11-06T18:38:32;10.30;1.00
27534;DHT22;14973;51.460;7.008;2022-11-06T18:41:04;10.40;1.00
27534;DHT22;14973;51.460;7.008;2022-11-06T18:43:30;10.30;1.00
27534;DHT22;14973;51.460;7.008;2022-11-06T18:45:55;10.40;1.00
27534;DHT22;14973;51.460;7.008;2022-11-06T18:48:21;10.40;3.40